Time;durP1;ratioP1;P1;durP2;ratioP2;P2;SDS_P1;SDS_P2;PMS_P1;PMS_P2;Temp;Humidity;BMP_temperature;BMP_pressure;BME280_temperature;BME280_humidity;BME280_pressure;Samples;Min_cycle;Max_cycle;Signal;HPM_P1;HPM_P2
2023/01/18 00:00:40;;;;;;;14.40;4.13;;;0.00;99.90;;;;;;5069010;28;20490;-54
2023/01/18 00:03:11;;;;;;;14.18;4.70;;;0.10;99.90;;;;;;5068964;28;20471;-53
2023/01/18 00:05:39;;;;;;;9.52;4.47;;;0.00;99.90;;;;;;5067918;28;20025;-53
2023/01/18 00:08:06;;;;;;;10.70;4.40;;;0.00;99.90;;;;;;5068639;28;20060;-55
2023/01/18 00:10:32;;;;;;;10.73;4.25;;;0.00;99.90;;;;;;5067371;28;20028;-52
2023/01/18 00:12:57;;;;;;;7.97;4.40;;;0.00;99.90;;;;;;5068528;28;20044;-51
2023/01/18 00:15:23;;;;;;;8.07;4.70;;;0.00;99.90;;;;;;5067966;28;20028;-52
2023/01/18 00:17:52;;;;;;;14.27;4.68;;;-0.10;99.90;;;;;;5076401;28;20031;-52
2023/01/18 00:20:20;;;;;;;8.45;4.68;;;-0.20;99.90;;;;;;5088425;28;20016;-53
2023/01/18 00:22:46;;;;;;;7.82;4.15;;;-0.30;99.90;;;;;;5088173;28;20115;-50
2023/01/18 00:25:12;;;;;;;16.23;4.80;;;-0.30;99.90;;;;;;5088283;28;20105;-51
2023/01/18 00:27:38;;;;;;;9.27;3.95;;;-0.30;99.90;;;;;;5088892;28;20050;-53
2023/01/18 00:30:05;;;;;;;13.48;4.93;;;-0.30;99.90;;;;;;5089000;28;20024;-51
2023/01/18 00:32:31;;;;;;;11.32;5.32;;;-0.40;99.90;;;;;;5088483;28;20024;-52
2023/01/18 00:34:57;;;;;;;9.32;4.80;;;-0.40;99.90;;;;;;5088373;28;20455;-52
2023/01/18 00:37:26;;;;;;;8.57;4.65;;;-0.50;99.90;;;;;;5086683;28;20115;-52
2023/01/18 00:39:52;;;;;;;10.60;4.35;;;-0.50;99.90;;;;;;5092663;28;20024;-53
2023/01/18 00:45:02;;;;;;;6.40;4.38;;;-0.60;99.90;;;;;;5092186;28;20034;-55
2023/01/18 00:47:28;;;;;;;7.57;4.40;;;-0.60;99.90;;;;;;5092381;28;20461;-55
2023/01/18 00:49:53;;;;;;;9.20;4.47;;;-0.70;99.90;;;;;;5092694;28;20047;-50
2023/01/18 00:52:19;;;;;;;10.32;4.65;;;-0.80;99.90;;;;;;5091107;28;20070;-53
2023/01/18 00:54:44;;;;;;;8.65;4.57;;;-0.80;99.90;;;;;;5092438;28;20028;-53
2023/01/18 00:57:10;;;;;;;8.18;4.32;;;-0.80;99.90;;;;;;5092206;28;20390;-52
2023/01/18 00:59:36;;;;;;;11.90;5.63;;;-0.80;99.90;;;;;;5091319;28;20479;-54
2023/01/18 01:02:01;;;;;;;7.30;4.43;;;-0.80;99.90;;;;;;5090928;28;20467;-53
2023/01/18 01:07:11;;;;;;;10.23;4.60;;;-0.90;99.90;;;;;;5091760;28;20035;-53
2023/01/18 01:09:36;;;;;;;11.88;5.05;;;-1.00;99.90;;;;;;5092228;28;20174;-54
2023/01/18 01:26:07;;;;;;;12.73;5.47;;;-1.10;99.90;;;;;;5091926;28;20043;-52
2023/01/18 01:28:40;;;;;;;7.47;4.85;;;-1.10;99.90;;;;;;5092068;28;20063;-52
2023/01/18 01:31:08;;;;;;;13.50;5.38;;;-1.20;99.90;;;;;;5092028;28;20036;-53
2023/01/18 01:33:34;;;;;;;8.75;5.10;;;-1.20;99.90;;;;;;5091748;28;20051;-54
2023/01/18 01:36:03;;;;;;;10.48;5.20;;;-1.20;99.90;;;;;;5090870;28;20024;-51
2023/01/18 01:38:29;;;;;;;11.40;5.10;;;-1.30;99.90;;;;;;5091420;28;20027;-53
2023/01/18 01:41:05;;;;;;;10.15;5.10;;;-1.30;99.90;;;;;;5092055;28;20115;-53
2023/01/18 01:43:46;;;;;;;8.00;4.68;;;-1.30;99.90;;;;;;5091788;28;20039;-53
2023/01/18 01:46:14;;;;;;;10.27;6.20;;;-1.30;99.90;;;;;;5091115;28;20028;-53
2023/01/18 01:48:40;;;;;;;16.92;5.72;;;-1.30;99.90;;;;;;5088012;28;20088;-52
2023/01/18 01:51:06;;;;;;;11.57;5.35;;;-1.30;99.90;;;;;;5091263;28;20462;-53
2023/01/18 01:53:32;;;;;;;9.15;5.45;;;-1.30;99.90;;;;;;5091306;28;20023;-53
2023/01/18 01:55:58;;;;;;;17.10;6.57;;;-1.30;99.90;;;;;;5090742;28;20127;-52
2023/01/18 01:58:28;;;;;;;11.80;5.47;;;-1.30;99.90;;;;;;5091252;28;20269;-52
2023/01/18 02:00:54;;;;;;;12.93;8.02;;;-1.30;99.90;;;;;;5091191;28;20362;-52
2023/01/18 02:03:22;;;;;;;16.83;7.07;;;-1.30;99.90;;;;;;5090995;28;20024;-39
2023/01/18 02:05:54;;;;;;;10.43;6.28;;;-1.30;99.90;;;;;;5090458;28;20115;-39
2023/01/18 02:08:23;;;;;;;13.50;6.82;;;-1.30;99.90;;;;;;5091710;28;20134;-39
2023/01/18 02:10:50;;;;;;;11.15;6.22;;;-1.30;99.90;;;;;;5091483;28;20028;-39
2023/01/18 02:13:18;;;;;;;14.82;6.57;;;-1.30;99.90;;;;;;5090996;28;20035;-40
2023/01/18 02:16:08;;;;;;;13.85;6.03;;;-1.40;99.90;;;;;;5090591;28;20028;-39
2023/01/18 02:18:46;;;;;;;11.07;6.22;;;-1.40;99.90;;;;;;5091233;28;20081;-39
2023/01/18 02:21:17;;;;;;;13.32;5.88;;;-1.40;99.90;;;;;;5090755;28;20024;-40
2023/01/18 02:24:30;;;;;;;11.77;5.53;;;-1.40;99.90;;;;;;5090725;28;20471;-39
2023/01/18 02:27:16;;;;;;;10.50;5.03;;;-1.50;99.90;;;;;;5088206;28;20040;-40
2023/01/18 02:29:48;;;;;;;15.65;6.15;;;-1.60;99.90;;;;;;5090672;28;20056;-39
2023/01/18 02:32:26;;;;;;;18.00;5.93;;;-1.50;99.90;;;;;;5089196;28;20050;-39
2023/01/18 02:35:07;;;;;;;11.80;5.47;;;-1.50;99.90;;;;;;5090122;28;20028;-39
2023/01/18 02:37:39;;;;;;;10.50;5.45;;;-1.60;99.90;;;;;;5090520;28;20483;-39
2023/01/18 02:40:14;;;;;;;11.38;5.25;;;-1.60;99.90;;;;;;5090767;28;20497;-40
2023/01/18 02:48:42;;;;;;;11.48;5.05;;;-1.70;99.90;;;;;;5086996;28;20093;-40
2023/01/18 02:51:07;;;;;;;10.52;5.15;;;-1.70;99.90;;;;;;5089955;28;20032;-40
2023/01/18 02:53:39;;;;;;;9.10;5.40;;;-1.70;99.90;;;;;;5090558;28;20035;-39
2023/01/18 02:56:10;;;;;;;11.85;4.95;;;-1.70;99.90;;;;;;5089822;28;20093;-40
2023/01/18 02:58:58;;;;;;;10.80;4.85;;;-1.90;99.90;;;;;;5090147;28;20537;-40
2023/01/18 03:01:52;;;;;;;12.35;5.35;;;-1.90;99.90;;;;;;5088376;28;20111;-40
2023/01/18 03:04:28;;;;;;;13.80;4.68;;;-1.90;99.90;;;;;;5086037;28;20044;-40
2023/01/18 03:07:01;;;;;;;11.90;5.30;;;-1.90;99.90;;;;;;5089042;28;20024;-40
2023/01/18 03:09:27;;;;;;;10.07;5.03;;;-1.80;99.90;;;;;;5089720;28;20478;-40
2023/01/18 03:12:07;;;;;;;9.00;4.63;;;-1.80;99.90;;;;;;5089223;28;20089;-40
2023/01/18 03:14:48;;;;;;;8.07;4.60;;;-1.80;99.90;;;;;;5089217;28;20323;-40
2023/01/18 03:17:40;;;;;;;19.20;5.35;;;-1.80;99.90;;;;;;5085763;28;20616;-40
2023/01/18 03:20:10;;;;;;;14.65;6.30;;;-1.70;99.90;;;;;;5087383;28;20400;-40
2023/01/18 03:25:49;;;;;;;15.32;5.93;;;-1.80;99.90;;;;;;5086673;28;20101;-40
2023/01/18 03:34:32;;;;;;;9.30;5.20;;;-1.70;99.90;;;;;;5088049;28;20513;-41
2023/01/18 03:37:02;;;;;;;15.38;6.45;;;-1.70;99.90;;;;;;5084901;28;20667;-40
2023/01/18 03:39:45;;;;;;;15.43;6.00;;;-1.70;99.90;;;;;;5089015;28;20024;-39
2023/01/18 03:42:19;;;;;;;15.73;6.50;;;-1.70;99.90;;;;;;5096666;28;20467;-40
2023/01/18 03:44:51;;;;;;;13.40;6.10;;;-1.60;99.90;;;;;;5086753;28;20016;-40
2023/01/18 03:47:17;;;;;;;17.30;6.60;;;-1.50;99.90;;;;;;5085639;28;20020;-38
2023/01/18 03:49:43;;;;;;;11.55;4.85;;;-1.50;99.90;;;;;;5088288;28;20058;-38
2023/01/18 03:52:14;;;;;;;11.60;6.05;;;-1.50;99.90;;;;;;5088400;28;20471;-39
2023/01/18 03:55:06;;;;;;;11.52;5.43;;;-1.50;99.90;;;;;;5088581;28;20074;-39
2023/01/18 03:58:01;;;;;;;11.02;6.00;;;-1.50;99.90;;;;;;5088967;28;20028;-39
2023/01/18 04:00:26;;;;;;;13.00;5.65;;;-1.40;99.90;;;;;;5088749;28;20048;-39
2023/01/18 04:02:52;;;;;;;12.25;6.90;;;-1.40;99.90;;;;;;5088837;28;20016;-39
2023/01/18 04:05:18;;;;;;;11.27;5.35;;;-1.40;99.90;;;;;;5088341;28;20024;-39
2023/01/18 04:07:44;;;;;;;15.63;5.15;;;-1.40;99.90;;;;;;5088608;28;20119;-39
2023/01/18 04:10:10;;;;;;;6.78;4.80;;;-1.40;99.90;;;;;;5088675;28;20035;-39
2023/01/18 04:12:36;;;;;;;8.60;4.85;;;-1.40;99.90;;;;;;5087448;28;20023;-39
2023/01/18 04:15:02;;;;;;;8.73;5.57;;;-1.50;99.90;;;;;;5087313;28;20434;-39
2023/01/18 04:17:28;;;;;;;8.60;5.10;;;-1.50;99.90;;;;;;5088094;28;20266;-39
2023/01/18 04:19:53;;;;;;;13.30;5.22;;;-1.60;99.90;;;;;;5088055;28;20467;-40
2023/01/18 04:22:19;;;;;;;10.45;5.47;;;-1.60;99.90;;;;;;5087914;28;20171;-39
2023/01/18 04:24:44;;;;;;;8.93;4.85;;;-1.60;99.90;;;;;;5085939;28;20030;-39
2023/01/18 04:27:10;;;;;;;10.18;5.30;;;-1.60;99.90;;;;;;5086697;28;20027;-39
2023/01/18 04:29:36;;;;;;;10.55;5.18;;;-1.60;99.90;;;;;;5087875;28;20028;-39
2023/01/18 04:32:02;;;;;;;12.10;5.32;;;-1.70;99.90;;;;;;5088198;28;20036;-39
2023/01/18 04:34:27;;;;;;;11.95;5.55;;;-1.60;99.90;;;;;;5086909;28;20028;-39
2023/01/18 04:36:53;;;;;;;11.05;5.57;;;-1.60;99.90;;;;;;5087244;28;20518;-39
2023/01/18 04:39:19;;;;;;;14.55;5.53;;;-1.60;99.90;;;;;;5088606;28;20031;-39
2023/01/18 04:41:45;;;;;;;10.65;5.50;;;-1.70;99.90;;;;;;5088361;28;20159;-40
2023/01/18 04:44:11;;;;;;;15.73;6.63;;;-1.70;99.90;;;;;;5088580;28;20374;-40
2023/01/18 04:46:37;;;;;;;17.70;6.85;;;-1.70;99.90;;;;;;5087445;28;20016;-40
2023/01/18 04:49:10;;;;;;;11.32;5.75;;;-1.60;99.90;;;;;;5083987;28;20019;-40
2023/01/18 04:51:37;;;;;;;13.95;6.38;;;-1.60;99.90;;;;;;5086215;28;20474;-40
2023/01/18 04:54:03;;;;;;;12.40;6.45;;;-1.60;99.90;;;;;;5087046;28;20051;-41
2023/01/18 04:56:28;;;;;;;15.95;5.72;;;-1.70;99.90;;;;;;5087031;28;20058;-40
2023/01/18 04:58:54;;;;;;;16.70;5.82;;;-1.60;99.90;;;;;;5086887;28;20032;-40
2023/01/18 05:01:21;;;;;;;14.00;6.43;;;-1.70;99.90;;;;;;5086859;28;20020;-41
2023/01/18 05:03:47;;;;;;;11.35;5.57;;;-1.70;99.90;;;;;;5088025;28;20022;-41
2023/01/18 05:06:14;;;;;;;9.25;5.38;;;-1.70;99.90;;;;;;5088017;28;20028;-41
2023/01/18 05:08:40;;;;;;;9.25;5.60;;;-1.70;99.90;;;;;;5088230;28;20043;-40
2023/01/18 05:11:09;;;;;;;15.63;6.07;;;-1.70;99.90;;;;;;5086430;28;20024;-40
2023/01/18 05:13:34;;;;;;;11.77;5.93;;;-1.70;99.90;;;;;;5086863;28;20111;-40
2023/01/18 05:16:01;;;;;;;11.95;6.25;;;-1.70;99.90;;;;;;5087343;28;20119;-40
2023/01/18 05:18:27;;;;;;;11.38;6.18;;;-1.70;99.90;;;;;;5086856;28;20024;-40
2023/01/18 05:20:52;;;;;;;9.63;5.53;;;-1.70;99.90;;;;;;5087503;28;20012;-40
2023/01/18 05:23:18;;;;;;;8.52;5.28;;;-1.80;99.90;;;;;;5089432;28;20076;-40
2023/01/18 05:25:44;;;;;;;9.73;5.47;;;-1.80;99.90;;;;;;5090961;28;20193;-40
2023/01/18 05:28:10;;;;;;;9.70;5.97;;;-1.80;99.90;;;;;;5091488;28;20099;-41
2023/01/18 05:30:41;;;;;;;16.48;6.43;;;-1.80;99.90;;;;;;5091571;28;20224;-40
2023/01/18 05:33:08;;;;;;;15.55;5.97;;;-1.70;99.90;;;;;;5090302;28;20390;-40
2023/01/18 05:35:34;;;;;;;14.10;5.60;;;-1.80;99.90;;;;;;5091069;28;20024;-40
2023/01/18 05:37:59;;;;;;;12.63;5.75;;;-1.80;99.90;;;;;;5091100;28;20043;-40
2023/01/18 05:40:25;;;;;;;19.77;6.90;;;-1.70;99.90;;;;;;5091886;28;20233;-40
2023/01/18 05:42:50;;;;;;;17.60;7.20;;;-1.70;99.90;;;;;;5091766;28;20028;-39
2023/01/18 05:45:16;;;;;;;19.10;6.95;;;-1.70;99.90;;;;;;5091125;28;20016;-40
2023/01/18 05:47:42;;;;;;;14.93;6.57;;;-1.70;99.90;;;;;;5088267;28;20342;-39
2023/01/18 05:50:08;;;;;;;12.77;6.25;;;-1.70;99.90;;;;;;5090236;28;20028;-39
2023/01/18 05:52:34;;;;;;;9.45;5.80;;;-1.70;99.90;;;;;;5090963;28;20074;-40
2023/01/18 05:55:00;;;;;;;14.40;5.80;;;-1.80;99.90;;;;;;5090852;28;20028;-40
2023/01/18 05:57:25;;;;;;;13.55;6.40;;;-1.80;99.90;;;;;;5091037;28;20024;-40
2023/01/18 05:59:51;;;;;;;10.98;5.68;;;-1.90;99.90;;;;;;5091187;28;20043;-40
2023/01/18 06:02:17;;;;;;;12.00;5.50;;;-1.90;99.90;;;;;;5091571;28;20065;-40
2023/01/18 06:04:43;;;;;;;13.57;6.15;;;-1.90;99.90;;;;;;5090848;28;20058;-40
2023/01/18 06:07:09;;;;;;;14.60;5.63;;;-1.90;99.90;;;;;;5090977;28;20020;-40
2023/01/18 06:09:34;;;;;;;9.75;5.00;;;-1.90;99.90;;;;;;5091087;28;20024;-40
2023/01/18 06:12:00;;;;;;;12.25;6.05;;;-1.90;99.90;;;;;;5090865;28;20101;-40
2023/01/18 06:14:26;;;;;;;12.32;6.13;;;-1.90;99.90;;;;;;5090502;28;20067;-40
2023/01/18 06:16:51;;;;;;;9.57;5.90;;;-1.90;99.90;;;;;;5089861;28;20020;-40
2023/01/18 06:19:17;;;;;;;15.05;6.70;;;-1.90;99.90;;;;;;5088955;28;20062;-40
2023/01/18 06:21:42;;;;;;;15.45;7.97;;;-1.80;99.90;;;;;;5090040;28;20012;-40
2023/01/18 06:24:08;;;;;;;13.55;7.00;;;-1.80;99.90;;;;;;5089963;28;20019;-40
2023/01/18 06:26:34;;;;;;;18.08;7.50;;;-1.80;99.90;;;;;;5089656;28;20428;-40
2023/01/18 06:28:59;;;;;;;13.70;7.00;;;-1.90;99.90;;;;;;5090599;28;20024;-40
2023/01/18 06:31:25;;;;;;;15.95;7.32;;;-1.90;99.90;;;;;;5091086;28;20024;-40
2023/01/18 06:33:50;;;;;;;22.05;10.52;;;-1.90;99.90;;;;;;5090209;28;20153;-40
2023/01/18 06:36:16;;;;;;;21.02;9.60;;;-1.90;99.90;;;;;;5086899;28;20338;-39
2023/01/18 06:38:41;;;;;;;21.05;9.15;;;-1.90;99.90;;;;;;5089301;28;20028;-40
2023/01/18 06:41:08;;;;;;;17.00;8.95;;;-1.90;99.90;;;;;;5090739;28;20433;-40
2023/01/18 06:43:33;;;;;;;21.15;9.68;;;-1.90;99.90;;;;;;5090295;28;20020;-40
2023/01/18 06:45:59;;;;;;;19.48;8.60;;;-1.90;99.90;;;;;;5088505;28;20026;-40
2023/01/18 06:48:26;;;;;;;17.42;7.97;;;-1.90;99.90;;;;;;5088015;28;20054;-40
2023/01/18 06:50:54;;;;;;;14.80;7.78;;;-2.00;99.90;;;;;;5089301;28;20019;-40
2023/01/18 06:53:20;;;;;;;16.40;7.60;;;-2.00;99.90;;;;;;5089685;28;20035;-40
2023/01/18 06:56:13;;;;;;;11.65;6.25;;;-2.00;99.90;;;;;;5089213;28;20013;-40
2023/01/18 06:58:39;;;;;;;14.27;6.70;;;-1.90;99.90;;;;;;5088618;28;20493;-40
2023/01/18 07:01:04;;;;;;;17.67;6.95;;;-1.80;99.90;;;;;;5089430;28;20024;-40
2023/01/18 07:03:31;;;;;;;16.67;7.13;;;-1.90;99.90;;;;;;5088367;28;20576;-40
2023/01/18 07:05:59;;;;;;;13.57;7.00;;;-1.90;99.90;;;;;;5089336;28;20032;-40
2023/01/18 07:08:29;;;;;;;10.05;5.70;;;-1.90;99.90;;;;;;5088474;28;20036;-40
2023/01/18 07:10:56;;;;;;;13.27;6.57;;;-1.90;99.90;;;;;;5089627;28;20036;-40
2023/01/18 07:13:22;;;;;;;14.43;6.60;;;-1.90;99.90;;;;;;5090127;28;20024;-41
2023/01/18 07:15:57;;;;;;;10.35;6.38;;;-1.90;99.90;;;;;;5089078;28;20094;-40
2023/01/18 07:18:23;;;;;;;14.68;6.82;;;-1.90;99.90;;;;;;5088169;28;20046;-40
2023/01/18 07:21:00;;;;;;;13.75;7.28;;;-1.90;99.90;;;;;;5089358;28;20020;-40
2023/01/18 07:23:27;;;;;;;14.45;5.90;;;-1.90;99.90;;;;;;5089280;28;20024;-40
2023/01/18 07:26:19;;;;;;;14.52;6.57;;;-1.90;99.90;;;;;;5088976;28;20533;-40
2023/01/18 07:28:46;;;;;;;11.15;6.10;;;-1.80;99.90;;;;;;5089217;28;20556;-40
2023/01/18 07:31:12;;;;;;;18.42;7.95;;;-1.90;99.90;;;;;;5088228;28;20077;-40
2023/01/18 07:33:38;;;;;;;11.48;7.03;;;-1.90;99.90;;;;;;5089615;28;20020;-40
2023/01/18 07:36:09;;;;;;;12.43;6.15;;;-1.90;99.90;;;;;;5088921;28;20028;-41
2023/01/18 07:38:35;;;;;;;16.17;7.22;;;-1.90;99.90;;;;;;5089162;28;20036;-40
2023/01/18 07:41:10;;;;;;;16.15;7.47;;;-1.80;99.90;;;;;;5089471;28;20069;-40
2023/01/18 07:43:39;;;;;;;12.55;6.00;;;-1.80;99.90;;;;;;5089464;28;20016;-40
2023/01/18 07:46:06;;;;;;;10.23;5.93;;;-1.80;99.90;;;;;;5088731;28;20032;-41
2023/01/18 07:48:32;;;;;;;17.17;7.07;;;-1.80;99.90;;;;;;5086763;28;20085;-41
2023/01/18 07:51:00;;;;;;;12.93;6.25;;;-1.70;99.90;;;;;;5087681;28;20032;-40
2023/01/18 07:53:27;;;;;;;13.00;6.90;;;-1.70;99.90;;;;;;5088984;28;20054;-39
2023/01/18 07:55:53;;;;;;;16.65;7.68;;;-1.70;99.90;;;;;;5088524;28;20028;-40
2023/01/18 07:58:19;;;;;;;17.27;6.63;;;-1.60;99.90;;;;;;5080585;28;20025;-40
2023/01/18 08:00:45;;;;;;;17.20;8.30;;;-1.60;99.90;;;;;;5067618;28;20381;-40
2023/01/18 08:03:16;;;;;;;14.88;6.65;;;-1.60;99.90;;;;;;5067759;28;20127;-41
2023/01/18 08:05:43;;;;;;;19.33;7.03;;;-1.50;99.90;;;;;;5067077;28;20060;-40
2023/01/18 08:08:13;;;;;;;17.92;7.55;;;-1.50;99.90;;;;;;5067635;28;20085;-40
2023/01/18 08:10:40;;;;;;;17.10;7.97;;;-1.50;99.90;;;;;;5067762;28;20111;-39
2023/01/18 08:13:10;;;;;;;22.05;9.20;;;-1.40;99.90;;;;;;5067672;28;20028;-39
2023/01/18 08:15:37;;;;;;;12.82;5.85;;;-1.40;99.90;;;;;;5067038;28;20479;-40
2023/01/18 08:18:04;;;;;;;10.20;5.90;;;-1.30;99.90;;;;;;5076568;28;20039;-40
2023/01/18 08:20:30;;;;;;;16.35;7.97;;;-1.30;99.90;;;;;;5087502;28;20027;-40
2023/01/18 08:22:57;;;;;;;15.75;6.68;;;-1.20;99.90;;;;;;5068911;28;20119;-39
2023/01/18 08:25:28;;;;;;;18.50;8.10;;;-1.20;99.90;;;;;;5087431;28;20028;-40
2023/01/18 08:27:58;;;;;;;9.48;5.90;;;-1.10;99.90;;;;;;5087669;28;20032;-40
2023/01/18 08:30:29;;;;;;;14.13;6.95;;;-1.10;99.90;;;;;;5087901;28;20422;-40
2023/01/18 08:32:56;;;;;;;16.35;7.72;;;-1.00;99.90;;;;;;5086115;28;20039;-39
2023/01/18 08:35:23;;;;;;;11.07;6.70;;;-1.00;99.90;;;;;;5085528;28;20024;-41
2023/01/18 08:37:49;;;;;;;18.38;7.18;;;-0.90;99.90;;;;;;5087476;28;20058;-40
2023/01/18 08:40:14;;;;;;;14.32;6.53;;;-0.90;99.90;;;;;;5086143;28;20028;-40
2023/01/18 08:42:40;;;;;;;14.18;6.53;;;-0.80;99.90;;;;;;5087394;28;20032;-40
2023/01/18 08:45:06;;;;;;;14.00;6.57;;;-0.80;99.90;;;;;;5086801;28;20034;-39
2023/01/18 08:47:32;;;;;;;20.27;8.10;;;-0.70;99.90;;;;;;5086652;28;20050;-40
2023/01/18 08:49:57;;;;;;;12.45;7.00;;;-0.60;99.90;;;;;;5085015;28;20103;-40
2023/01/18 08:52:23;;;;;;;13.80;6.93;;;-0.50;99.90;;;;;;5086909;28;20024;-40
2023/01/18 08:54:48;;;;;;;12.90;7.25;;;-0.40;99.90;;;;;;5086948;28;20028;-40
2023/01/18 08:57:14;;;;;;;25.42;11.43;;;-0.40;99.90;;;;;;5087609;28;20032;-40
2023/01/18 08:59:39;;;;;;;20.65;8.98;;;-0.30;99.90;;;;;;5091356;28;20059;-40
2023/01/18 09:02:05;;;;;;;12.98;7.65;;;-0.30;99.90;;;;;;5091046;28;20081;-40
2023/01/18 09:04:30;;;;;;;16.65;8.18;;;-0.20;99.90;;;;;;5089752;28;20028;-40
2023/01/18 09:06:57;;;;;;;13.50;7.28;;;-0.20;99.90;;;;;;5089289;28;20048;-40
2023/01/18 09:09:22;;;;;;;17.40;7.85;;;-0.10;99.90;;;;;;5097901;28;20035;-40
2023/01/18 09:11:51;;;;;;;17.38;7.75;;;0.00;99.90;;;;;;5100733;28;20023;-40
2023/01/18 09:14:17;;;;;;;12.13;6.97;;;0.00;99.90;;;;;;5100976;28;20486;-40
2023/01/18 09:16:42;;;;;;;14.82;8.10;;;0.10;99.90;;;;;;5098196;28;20107;-41
2023/01/18 09:19:08;;;;;;;17.77;8.43;;;0.10;99.90;;;;;;5100151;28;20019;-40
2023/01/18 09:21:34;;;;;;;18.27;8.63;;;0.20;99.90;;;;;;5100166;28;20111;-40
2023/01/18 09:24:00;;;;;;;18.65;8.73;;;0.30;99.90;;;;;;5097454;28;20390;-41
2023/01/18 09:26:26;;;;;;;14.50;8.05;;;0.40;99.90;;;;;;5100485;28;20023;-40
2023/01/18 09:28:52;;;;;;;13.25;7.43;;;0.50;99.90;;;;;;5100030;28;20390;-40
2023/01/18 09:31:24;;;;;;;14.35;7.78;;;0.60;99.90;;;;;;5098372;28;20070;-40
2023/01/18 09:33:50;;;;;;;11.35;7.00;;;0.70;99.90;;;;;;5099805;28;20424;-40
2023/01/18 09:36:16;;;;;;;19.50;7.60;;;0.70;99.90;;;;;;5100453;28;20035;-40
2023/01/18 09:38:43;;;;;;;14.82;7.22;;;0.70;99.90;;;;;;5099657;28;20020;-47
2023/01/18 09:41:21;;;;;;;15.27;6.95;;;0.80;99.90;;;;;;5090496;28;20032;-41
2023/01/18 09:43:50;;;;;;;11.98;7.13;;;0.80;99.90;;;;;;5090598;28;20140;-40
2023/01/18 09:46:22;;;;;;;13.77;7.90;;;0.90;99.90;;;;;;5084758;28;20012;-40
2023/01/18 09:48:53;;;;;;;12.80;7.15;;;1.00;99.90;;;;;;5090387;28;20039;-44
2023/01/18 09:51:31;;;;;;;15.15;7.20;;;1.00;99.90;;;;;;5088644;28;20016;-41
2023/01/18 09:54:09;;;;;;;10.65;6.82;;;1.10;99.90;;;;;;5090135;28;20477;-40
2023/01/18 09:56:58;;;;;;;16.02;7.85;;;1.20;99.90;;;;;;5090378;28;20032;-40
2023/01/18 09:59:41;;;;;;;13.32;6.78;;;1.20;99.90;;;;;;5090201;28;20028;-40
2023/01/18 10:02:22;;;;;;;15.73;8.13;;;1.30;99.90;;;;;;5090218;28;20035;-40
2023/01/18 10:04:55;;;;;;;15.45;7.38;;;1.40;99.90;;;;;;5089654;28;20035;-40
2023/01/18 10:07:24;;;;;;;13.95;6.93;;;1.40;99.90;;;;;;5090307;28;20024;-40
2023/01/18 10:09:55;;;;;;;18.23;8.13;;;1.50;99.90;;;;;;5086867;28;20145;-40
2023/01/18 10:12:35;;;;;;;18.35;7.70;;;1.50;99.90;;;;;;5086094;28;20047;-40
2023/01/18 10:15:23;;;;;;;17.48;7.80;;;1.60;99.90;;;;;;5087149;28;20031;-40
2023/01/18 10:17:54;;;;;;;11.40;6.30;;;1.70;99.90;;;;;;5090029;28;20032;-40
2023/01/18 10:20:40;;;;;;;21.17;9.88;;;1.80;99.90;;;;;;5096945;28;20019;-40
2023/01/18 10:23:19;;;;;;;15.45;6.88;;;1.80;99.90;;;;;;5093026;28;20117;-40
2023/01/18 10:25:51;;;;;;;16.75;7.78;;;1.90;99.90;;;;;;5091294;28;20024;-40
2023/01/18 10:28:16;;;;;;;15.63;8.15;;;1.90;99.90;;;;;;5089144;28;20043;-40
2023/01/18 10:30:44;;;;;;;13.13;7.30;;;2.00;99.90;;;;;;5090701;28;20072;-40
2023/01/18 10:33:15;;;;;;;13.52;7.80;;;2.10;99.90;;;;;;5083376;28;20580;-40
2023/01/18 10:35:46;;;;;;;19.35;8.93;;;2.10;99.90;;;;;;5081139;28;20119;-41
2023/01/18 10:38:15;;;;;;;19.88;9.38;;;2.20;99.90;;;;;;5090117;28;20064;-40
2023/01/18 10:40:44;;;;;;;20.02;8.90;;;2.30;99.90;;;;;;5090447;28;20052;-40
2023/01/18 10:43:14;;;;;;;20.50;9.52;;;2.40;99.90;;;;;;5089077;28;20016;-40
2023/01/18 10:45:40;;;;;;;22.05;9.68;;;2.50;99.90;;;;;;5088454;28;20403;-40
2023/01/18 10:48:30;;;;;;;15.23;8.32;;;2.70;99.90;;;;;;5090779;28;20031;-41
2023/01/18 10:51:02;;;;;;;15.13;7.57;;;2.90;99.90;;;;;;5089658;28;20394;-40
2023/01/18 10:53:29;;;;;;;16.70;8.25;;;2.90;99.90;;;;;;5089501;28;20016;-41
2023/01/18 10:56:01;;;;;;;13.65;8.55;;;3.10;99.90;;;;;;5088172;28;20396;-41
2023/01/18 10:58:29;;;;;;;19.65;8.43;;;3.20;99.90;;;;;;5089602;28;20493;-41
2023/01/18 11:00:56;;;;;;;23.08;10.23;;;3.50;99.90;;;;;;5089936;28;20024;-41
2023/01/18 11:03:25;;;;;;;15.57;8.32;;;3.90;99.90;;;;;;5089733;28;20071;-41
2023/01/18 11:05:51;;;;;;;13.45;7.88;;;4.40;99.90;;;;;;5086404;28;20038;-40
2023/01/18 11:08:31;;;;;;;21.05;8.98;;;5.00;99.90;;;;;;5089544;28;20028;-41
2023/01/18 11:11:03;;;;;;;14.63;8.27;;;5.50;99.90;;;;;;5087956;28;20020;-42
2023/01/18 11:13:43;;;;;;;13.93;8.75;;;6.00;99.90;;;;;;5089305;28;20168;-42
2023/01/18 11:16:14;;;;;;;20.98;9.38;;;6.30;99.90;;;;;;5088923;28;20029;-41
2023/01/18 11:18:55;;;;;;;;;;;6.40;99.90;;;;;;5090362;28;20032;-42
2023/01/18 11:21:21;;;;;;;;;;;6.20;99.90;;;;;;5089907;28;20282;-41
2023/01/18 11:23:48;;;;;;;14.23;6.93;;;6.10;99.90;;;;;;5089555;28;19911;-42
2023/01/18 11:26:17;;;;;;;13.30;7.82;;;6.30;99.90;;;;;;5089592;28;20020;-42
2023/01/18 11:29:01;;;;;;;11.52;6.93;;;6.10;99.90;;;;;;5089736;28;20099;-41
2023/01/18 11:31:30;;;;;;;14.63;8.35;;;6.20;99.90;;;;;;5088954;28;20024;-41
2023/01/18 11:34:07;;;;;;;15.00;8.15;;;6.00;99.80;;;;;;5083676;28;20023;-42
2023/01/18 11:36:44;;;;;;;14.27;8.57;;;5.80;99.90;;;;;;5089336;28;20050;-41
2023/01/18 11:39:21;;;;;;;13.18;8.50;;;5.60;99.90;;;;;;5089226;28;20128;-41
2023/01/18 11:41:47;;;;;;;17.15;8.70;;;5.50;99.90;;;;;;5089231;28;20545;-42
2023/01/18 11:44:27;;;;;;;13.30;8.15;;;4.90;99.90;;;;;;5088009;28;20077;-41
2023/01/18 11:46:56;;;;;;;14.48;9.02;;;5.10;99.90;;;;;;5087580;28;20478;-54
2023/01/18 11:49:47;;;;;;;19.42;8.75;;;5.20;99.90;;;;;;5088927;28;20107;-51
2023/01/18 11:52:27;;;;;;;14.20;8.07;;;4.90;99.90;;;;;;5088881;28;20024;-54
2023/01/18 11:55:00;;;;;;;14.48;8.48;;;4.90;99.90;;;;;;5088480;28;20020;-54
2023/01/18 11:57:27;;;;;;;18.65;8.30;;;5.00;99.90;;;;;;5087626;28;20428;-52
2023/01/18 11:59:53;;;;;;;12.38;7.50;;;4.80;99.90;;;;;;5089313;28;20441;-53
2023/01/18 12:02:44;;;;;;;21.65;8.45;;;4.90;99.90;;;;;;5090765;28;20081;-52
2023/01/18 12:05:44;;;;;;;12.93;7.70;;;5.00;99.90;;;;;;5096678;28;20021;-55
2023/01/18 12:08:37;;;;;;;9.90;7.00;;;5.10;99.90;;;;;;5096897;28;20513;-52
2023/01/18 12:11:22;;;;;;;15.90;8.73;;;5.50;99.90;;;;;;5095870;28;20043;-55
2023/01/18 12:14:11;;;;;;;13.50;8.07;;;5.50;99.90;;;;;;5096611;28;20031;-53
2023/01/18 12:16:42;;;;;;;14.43;8.20;;;5.70;99.90;;;;;;5098867;28;20204;-54
2023/01/18 12:19:43;;;;;;;13.20;7.47;;;6.30;99.90;;;;;;5097910;28;20024;-54
2023/01/18 12:22:21;;;;;;;12.45;7.40;;;6.60;99.90;;;;;;5090655;28;20036;-55
2023/01/18 12:25:08;;;;;;;17.15;8.38;;;6.60;99.90;;;;;;5088021;28;20073;-54
2023/01/18 12:27:49;;;;;;;11.27;7.50;;;6.40;99.90;;;;;;5087088;28;20048;-53
2023/01/18 12:30:31;;;;;;;15.02;7.57;;;6.10;99.90;;;;;;5088659;28;20533;-53
2023/01/18 12:33:20;;;;;;;12.63;7.45;;;5.90;99.90;;;;;;5087311;28;20058;-53
2023/01/18 12:36:07;;;;;;;12.45;7.88;;;5.80;99.90;;;;;;5088070;28;20024;-54
2023/01/18 12:38:33;;;;;;;17.38;8.98;;;5.60;99.90;;;;;;5088515;28;20039;-54
2023/01/18 12:41:36;;;;;;;13.65;8.15;;;5.40;99.90;;;;;;5088455;28;20039;-52
2023/01/18 12:44:20;;;;;;;14.02;8.50;;;5.30;99.90;;;;;;5088417;28;20020;-54
2023/01/18 12:46:54;;;;;;;14.45;7.68;;;5.10;99.90;;;;;;5086888;28;20490;-53
2023/01/18 12:49:21;;;;;;;12.40;7.50;;;4.70;99.90;;;;;;5087997;28;20300;-52
2023/01/18 12:51:51;;;;;;;16.08;8.88;;;4.70;99.90;;;;;;5087320;28;20028;-54
2023/01/18 12:54:35;;;;;;;18.17;8.70;;;4.60;99.90;;;;;;5087285;28;20107;-54
2023/01/18 12:57:02;;;;;;;13.65;7.72;;;4.60;99.90;;;;;;5088659;28;20483;-53
2023/01/18 12:59:50;;;;;;;13.57;7.45;;;4.50;99.90;;;;;;5088424;28;20020;-53
2023/01/18 13:02:28;;;;;;;14.02;8.13;;;4.40;99.90;;;;;;5088648;28;20089;-54
2023/01/18 13:05:01;;;;;;;18.52;8.57;;;4.40;99.90;;;;;;5086313;28;20471;-53
2023/01/18 13:07:37;;;;;;;18.95;8.23;;;4.20;99.90;;;;;;5088278;28;20101;-53
2023/01/18 13:10:06;;;;;;;11.93;7.60;;;4.10;99.90;;;;;;5088360;28;20047;-54
2023/01/18 13:12:32;;;;;;;15.18;7.88;;;4.00;99.90;;;;;;5088243;28;20545;-53
2023/01/18 13:15:16;;;;;;;12.85;7.38;;;4.00;99.90;;;;;;5087621;28;20036;-50
2023/01/18 13:18:04;;;;;;;18.65;8.07;;;3.80;99.90;;;;;;5087739;28;20017;-55
2023/01/18 13:20:56;;;;;;;17.75;8.35;;;3.80;99.90;;;;;;5088216;28;20047;-51
2023/01/18 13:23:36;;;;;;;13.07;7.38;;;3.80;99.90;;;;;;5088452;28;20461;-53
2023/01/18 13:26:08;;;;;;;14.48;8.32;;;3.90;99.90;;;;;;5088044;28;20020;-53
2023/01/18 13:28:33;;;;;;;18.75;7.07;;;3.90;99.90;;;;;;5088571;28;20027;-51
2023/01/18 13:31:03;;;;;;;16.70;7.97;;;3.90;99.90;;;;;;5088477;28;20029;-53
2023/01/18 13:33:34;;;;;;;16.40;8.63;;;3.90;99.90;;;;;;5087852;28;20020;-51
2023/01/18 13:36:09;;;;;;;14.00;8.07;;;3.90;99.90;;;;;;5086477;28;20450;-50